sensor_id;sensor_type;location;lat;lon;timestamp;P1;durP1;ratioP1;P2;durP2;ratioP2
49103;SDS011;34915;52.926;11.116;2023-06-26T00:00:15;1999.90;;;999.90;;
49103;SDS011;34915;52.926;11.116;2023-06-26T00:02:43;1999.90;;;999.90;;
49103;SDS011;34915;52.926;11.116;2023-06-26T00:05:09;1999.90;;;999.90;;
49103;SDS011;34915;52.926;11.116;2023-06-26T00:07:34;1999.90;;;999.90;;
49103;SDS011;34915;52.926;11.116;2023-06-26T00:10:00;1999.90;;;999.90;;
49103;SDS011;34915;52.926;11.116;2023-06-26T00:12:29;1999.90;;;999.90;;
49103;SDS011;34915;52.926;11.116;2023-06-26T00:14:55;1999.90;;;999.90;;
49103;SDS011;34915;52.926;11.116;2023-06-26T00:17:21;1999.90;;;999.90;;
49103;SDS011;34915;52.926;11.116;2023-06-26T00:19:48;1999.90;;;999.90;;
49103;SDS011;34915;52.926;11.116;2023-06-26T00:22:14;1999.90;;;999.90;;
49103;SDS011;34915;52.926;11.116;2023-06-26T00:24:39;1643.57;;;690.03;;
49103;SDS011;34915;52.926;11.116;2023-06-26T00:27:05;1999.90;;;999.90;;
49103;SDS011;34915;52.926;11.116;2023-06-26T00:29:31;8.30;;;7.50;;
49103;SDS011;34915;52.926;11.116;2023-06-26T00:31:56;1999.90;;;794.87;;
49103;SDS011;34915;52.926;11.116;2023-06-26T00:34:22;1999.90;;;999.90;;
49103;SDS011;34915;52.926;11.116;2023-06-26T00:36:47;1999.90;;;999.90;;
49103;SDS011;34915;52.926;11.116;2023-06-26T00:39:13;1999.90;;;999.90;;
49103;SDS011;34915;52.926;11.116;2023-06-26T00:41:39;1999.90;;;999.90;;
49103;SDS011;34915;52.926;11.116;2023-06-26T00:44:05;1999.90;;;499.67;;
49103;SDS011;34915;52.926;11.116;2023-06-26T00:46:31;1999.90;;;999.90;;
49103;SDS011;34915;52.926;11.116;2023-06-26T00:48:58;1999.90;;;999.90;;
49103;SDS011;34915;52.926;11.116;2023-06-26T00:51:25;1999.90;;;999.90;;
49103;SDS011;34915;52.926;11.116;2023-06-26T00:53:52;1999.90;;;999.90;;
49103;SDS011;34915;52.926;11.116;2023-06-26T00:56:18;1999.90;;;999.90;;
49103;SDS011;34915;52.926;11.116;2023-06-26T00:58:45;1999.90;;;999.90;;
49103;SDS011;34915;52.926;11.116;2023-06-26T01:01:11;1999.90;;;999.90;;
49103;SDS011;34915;52.926;11.116;2023-06-26T01:03:43;1999.90;;;999.90;;
49103;SDS011;34915;52.926;11.116;2023-06-26T01:06:11;1999.90;;;999.90;;
49103;SDS011;34915;52.926;11.116;2023-06-26T01:08:41;1999.90;;;999.90;;
49103;SDS011;34915;52.926;11.116;2023-06-26T01:11:08;1999.90;;;999.90;;
49103;SDS011;34915;52.926;11.116;2023-06-26T01:13:34;1999.90;;;999.90;;
49103;SDS011;34915;52.926;11.116;2023-06-26T01:16:01;1999.90;;;999.90;;
49103;SDS011;34915;52.926;11.116;2023-06-26T01:18:28;1999.90;;;999.90;;
49103;SDS011;34915;52.926;11.116;2023-06-26T01:20:56;1999.90;;;999.90;;
49103;SDS011;34915;52.926;11.116;2023-06-26T01:26:25;1999.90;;;999.90;;
49103;SDS011;34915;52.926;11.116;2023-06-26T01:28:54;1999.90;;;999.90;;
49103;SDS011;34915;52.926;11.116;2023-06-26T01:31:22;1999.90;;;456.33;;
49103;SDS011;34915;52.926;11.116;2023-06-26T01:33:49;1999.90;;;999.90;;
49103;SDS011;34915;52.926;11.116;2023-06-26T01:36:15;1999.90;;;999.90;;
49103;SDS011;34915;52.926;11.116;2023-06-26T01:38:40;1999.90;;;999.90;;
49103;SDS011;34915;52.926;11.116;2023-06-26T01:41:06;1999.90;;;999.90;;
49103;SDS011;34915;52.926;11.116;2023-06-26T01:43:55;1999.90;;;999.90;;
49103;SDS011;34915;52.926;11.116;2023-06-26T01:46:24;1999.90;;;999.90;;
49103;SDS011;34915;52.926;11.116;2023-06-26T01:49:00;1999.90;;;999.90;;
49103;SDS011;34915;52.926;11.116;2023-06-26T01:51:35;1999.90;;;999.90;;
49103;SDS011;34915;52.926;11.116;2023-06-26T01:54:10;1999.90;;;999.90;;
49103;SDS011;34915;52.926;11.116;2023-06-26T01:56:42;180.50;;;34.10;;
49103;SDS011;34915;52.926;11.116;2023-06-26T01:59:10;7.10;;;6.40;;
49103;SDS011;34915;52.926;11.116;2023-06-26T02:01:36;9.03;;;7.80;;
49103;SDS011;34915;52.926;11.116;2023-06-26T02:04:02;8.30;;;7.47;;
49103;SDS011;34915;52.926;11.116;2023-06-26T02:06:28;8.07;;;7.27;;
49103;SDS011;34915;52.926;11.116;2023-06-26T02:08:53;9.57;;;7.30;;
49103;SDS011;34915;52.926;11.116;2023-06-26T02:11:21;13.53;;;8.40;;
49103;SDS011;34915;52.926;11.116;2023-06-26T02:13:47;6.33;;;5.57;;
49103;SDS011;34915;52.926;11.116;2023-06-26T02:16:13;10.30;;;7.67;;
49103;SDS011;34915;52.926;11.116;2023-06-26T02:18:38;8.40;;;7.23;;
49103;SDS011;34915;52.926;11.116;2023-06-26T02:21:04;9.20;;;8.30;;
49103;SDS011;34915;52.926;11.116;2023-06-26T02:23:30;8.73;;;7.63;;
49103;SDS011;34915;52.926;11.116;2023-06-26T02:25:57;10.17;;;7.50;;
49103;SDS011;34915;52.926;11.116;2023-06-26T02:28:25;8.43;;;7.57;;
49103;SDS011;34915;52.926;11.116;2023-06-26T02:30:51;9.60;;;7.43;;
49103;SDS011;34915;52.926;11.116;2023-06-26T02:33:16;10.63;;;7.33;;
49103;SDS011;34915;52.926;11.116;2023-06-26T02:35:42;9.33;;;8.40;;
49103;SDS011;34915;52.926;11.116;2023-06-26T02:38:07;9.43;;;7.83;;
49103;SDS011;34915;52.926;11.116;2023-06-26T02:40:33;10.47;;;8.23;;
49103;SDS011;34915;52.926;11.116;2023-06-26T02:42:59;10.57;;;8.30;;
49103;SDS011;34915;52.926;11.116;2023-06-26T02:45:24;8.70;;;7.90;;
49103;SDS011;34915;52.926;11.116;2023-06-26T02:47:50;9.30;;;7.80;;
49103;SDS011;34915;52.926;11.116;2023-06-26T02:50:15;9.43;;;8.53;;
49103;SDS011;34915;52.926;11.116;2023-06-26T02:52:41;8.30;;;7.37;;
49103;SDS011;34915;52.926;11.116;2023-06-26T02:55:07;9.77;;;7.93;;
49103;SDS011;34915;52.926;11.116;2023-06-26T02:57:32;8.43;;;7.63;;
49103;SDS011;34915;52.926;11.116;2023-06-26T02:59:58;9.73;;;7.70;;
49103;SDS011;34915;52.926;11.116;2023-06-26T03:02:23;9.83;;;7.63;;
49103;SDS011;34915;52.926;11.116;2023-06-26T03:04:49;8.63;;;7.80;;
49103;SDS011;34915;52.926;11.116;2023-06-26T03:07:15;9.27;;;7.77;;
49103;SDS011;34915;52.926;11.116;2023-06-26T03:09:41;8.40;;;7.50;;
49103;SDS011;34915;52.926;11.116;2023-06-26T03:12:07;8.50;;;7.33;;
49103;SDS011;34915;52.926;11.116;2023-06-26T03:14:33;8.27;;;7.57;;
49103;SDS011;34915;52.926;11.116;2023-06-26T03:16:58;8.40;;;7.60;;
49103;SDS011;34915;52.926;11.116;2023-06-26T03:19:28;14.97;;;8.17;;
49103;SDS011;34915;52.926;11.116;2023-06-26T03:21:54;8.80;;;7.20;;
49103;SDS011;34915;52.926;11.116;2023-06-26T03:24:20;8.27;;;7.37;;
49103;SDS011;34915;52.926;11.116;2023-06-26T03:26:45;11.80;;;7.43;;
49103;SDS011;34915;52.926;11.116;2023-06-26T03:29:14;9.33;;;7.67;;
49103;SDS011;34915;52.926;11.116;2023-06-26T03:31:40;10.70;;;8.10;;
49103;SDS011;34915;52.926;11.116;2023-06-26T03:34:05;9.03;;;7.87;;
49103;SDS011;34915;52.926;11.116;2023-06-26T03:36:33;9.13;;;7.20;;
49103;SDS011;34915;52.926;11.116;2023-06-26T03:38:58;6.77;;;5.53;;
49103;SDS011;34915;52.926;11.116;2023-06-26T03:41:25;7.83;;;5.77;;
49103;SDS011;34915;52.926;11.116;2023-06-26T03:43:51;12.43;;;6.23;;
49103;SDS011;34915;52.926;11.116;2023-06-26T03:46:16;5.83;;;4.63;;
49103;SDS011;34915;52.926;11.116;2023-06-26T03:48:42;6.30;;;4.20;;
49103;SDS011;34915;52.926;11.116;2023-06-26T03:51:07;5.83;;;4.93;;
49103;SDS011;34915;52.926;11.116;2023-06-26T03:53:33;5.70;;;5.03;;
49103;SDS011;34915;52.926;11.116;2023-06-26T03:55:59;9.20;;;6.87;;
49103;SDS011;34915;52.926;11.116;2023-06-26T03:58:25;7.53;;;6.73;;
49103;SDS011;34915;52.926;11.116;2023-06-26T04:00:51;9.17;;;8.33;;
49103;SDS011;34915;52.926;11.116;2023-06-26T04:03:16;9.23;;;8.27;;
49103;SDS011;34915;52.926;11.116;2023-06-26T04:05:42;8.63;;;7.83;;
49103;SDS011;34915;52.926;11.116;2023-06-26T04:08:08;8.40;;;7.63;;
49103;SDS011;34915;52.926;11.116;2023-06-26T04:10:36;8.10;;;7.40;;
49103;SDS011;34915;52.926;11.116;2023-06-26T04:13:02;9.70;;;8.80;;
49103;SDS011;34915;52.926;11.116;2023-06-26T04:15:28;11.73;;;7.90;;
49103;SDS011;34915;52.926;11.116;2023-06-26T04:17:53;9.97;;;8.50;;
49103;SDS011;34915;52.926;11.116;2023-06-26T04:20:19;9.80;;;8.13;;
49103;SDS011;34915;52.926;11.116;2023-06-26T04:22:44;9.17;;;8.00;;
49103;SDS011;34915;52.926;11.116;2023-06-26T04:25:10;9.13;;;8.00;;
49103;SDS011;34915;52.926;11.116;2023-06-26T04:27:37;11.77;;;8.80;;
49103;SDS011;34915;52.926;11.116;2023-06-26T04:30:03;9.63;;;8.10;;
49103;SDS011;34915;52.926;11.116;2023-06-26T04:32:30;9.17;;;7.20;;
49103;SDS011;34915;52.926;11.116;2023-06-26T04:34:56;9.47;;;7.70;;
49103;SDS011;34915;52.926;11.116;2023-06-26T04:37:22;8.17;;;7.20;;
49103;SDS011;34915;52.926;11.116;2023-06-26T04:39:48;10.73;;;7.83;;
49103;SDS011;34915;52.926;11.116;2023-06-26T04:42:14;10.10;;;7.70;;
49103;SDS011;34915;52.926;11.116;2023-06-26T04:44:39;8.23;;;7.33;;
49103;SDS011;34915;52.926;11.116;2023-06-26T04:47:06;8.87;;;7.83;;
49103;SDS011;34915;52.926;11.116;2023-06-26T04:49:33;11.20;;;7.87;;
49103;SDS011;34915;52.926;11.116;2023-06-26T04:51:59;8.30;;;7.33;;
49103;SDS011;34915;52.926;11.116;2023-06-26T04:54:25;8.77;;;7.83;;
49103;SDS011;34915;52.926;11.116;2023-06-26T04:56:52;9.10;;;8.30;;
49103;SDS011;34915;52.926;11.116;2023-06-26T04:59:17;7.70;;;6.90;;
49103;SDS011;34915;52.926;11.116;2023-06-26T05:01:43;8.70;;;7.90;;
49103;SDS011;34915;52.926;11.116;2023-06-26T05:04:13;9.37;;;7.43;;
49103;SDS011;34915;52.926;11.116;2023-06-26T05:06:40;8.20;;;7.40;;
49103;SDS011;34915;52.926;11.116;2023-06-26T05:09:05;12.20;;;7.13;;
49103;SDS011;34915;52.926;11.116;2023-06-26T05:11:31;9.13;;;7.30;;
49103;SDS011;34915;52.926;11.116;2023-06-26T05:13:57;7.47;;;6.77;;
49103;SDS011;34915;52.926;11.116;2023-06-26T05:16:22;9.30;;;7.47;;
49103;SDS011;34915;52.926;11.116;2023-06-26T05:18:48;8.27;;;6.80;;
49103;SDS011;34915;52.926;11.116;2023-06-26T05:21:13;8.30;;;7.60;;
49103;SDS011;34915;52.926;11.116;2023-06-26T05:23:40;10.00;;;7.27;;
49103;SDS011;34915;52.926;11.116;2023-06-26T05:26:06;7.60;;;6.90;;
49103;SDS011;34915;52.926;11.116;2023-06-26T05:28:32;7.80;;;7.10;;
49103;SDS011;34915;52.926;11.116;2023-06-26T05:30:58;7.17;;;6.47;;
49103;SDS011;34915;52.926;11.116;2023-06-26T05:33:25;7.87;;;7.17;;
49103;SDS011;34915;52.926;11.116;2023-06-26T05:35:52;8.67;;;6.40;;
49103;SDS011;34915;52.926;11.116;2023-06-26T05:38:18;6.83;;;6.23;;
49103;SDS011;34915;52.926;11.116;2023-06-26T05:40:44;7.33;;;6.63;;
49103;SDS011;34915;52.926;11.116;2023-06-26T05:43:10;6.87;;;6.17;;
49103;SDS011;34915;52.926;11.116;2023-06-26T05:45:40;8.97;;;6.50;;
49103;SDS011;34915;52.926;11.116;2023-06-26T05:48:05;6.43;;;5.87;;
49103;SDS011;34915;52.926;11.116;2023-06-26T05:50:33;7.03;;;6.23;;
49103;SDS011;34915;52.926;11.116;2023-06-26T05:52:59;7.00;;;6.27;;
49103;SDS011;34915;52.926;11.116;2023-06-26T05:55:28;7.40;;;5.47;;
49103;SDS011;34915;52.926;11.116;2023-06-26T05:57:54;6.40;;;5.60;;
49103;SDS011;34915;52.926;11.116;2023-06-26T06:00:23;6.83;;;5.97;;
49103;SDS011;34915;52.926;11.116;2023-06-26T06:02:50;8.70;;;5.43;;
49103;SDS011;34915;52.926;11.116;2023-06-26T06:05:20;6.37;;;5.33;;
49103;SDS011;34915;52.926;11.116;2023-06-26T06:07:46;6.87;;;5.13;;
49103;SDS011;34915;52.926;11.116;2023-06-26T06:10:12;6.67;;;4.60;;
49103;SDS011;34915;52.926;11.116;2023-06-26T06:12:37;6.57;;;5.53;;
49103;SDS011;34915;52.926;11.116;2023-06-26T06:15:04;6.97;;;5.50;;
49103;SDS011;34915;52.926;11.116;2023-06-26T06:17:30;7.83;;;5.47;;
49103;SDS011;34915;52.926;11.116;2023-06-26T06:19:55;6.47;;;5.27;;
49103;SDS011;34915;52.926;11.116;2023-06-26T06:22:21;5.73;;;5.13;;
49103;SDS011;34915;52.926;11.116;2023-06-26T06:24:48;5.90;;;4.80;;
49103;SDS011;34915;52.926;11.116;2023-06-26T06:27:14;6.83;;;5.30;;
49103;SDS011;34915;52.926;11.116;2023-06-26T06:29:39;5.47;;;4.80;;
49103;SDS011;34915;52.926;11.116;2023-06-26T06:32:05;8.00;;;5.60;;
49103;SDS011;34915;52.926;11.116;2023-06-26T06:34:31;5.43;;;4.93;;
49103;SDS011;34915;52.926;11.116;2023-06-26T06:36:57;5.80;;;5.13;;
49103;SDS011;34915;52.926;11.116;2023-06-26T06:39:22;5.63;;;5.10;;
49103;SDS011;34915;52.926;11.116;2023-06-26T06:41:48;7.00;;;4.83;;
49103;SDS011;34915;52.926;11.116;2023-06-26T06:44:13;6.37;;;5.03;;
49103;SDS011;34915;52.926;11.116;2023-06-26T06:46:39;6.43;;;4.93;;
49103;SDS011;34915;52.926;11.116;2023-06-26T06:49:05;5.20;;;4.80;;
49103;SDS011;34915;52.926;11.116;2023-06-26T06:51:30;4.83;;;4.33;;
49103;SDS011;34915;52.926;11.116;2023-06-26T06:53:56;8.97;;;5.17;;
49103;SDS011;34915;52.926;11.116;2023-06-26T06:56:21;4.60;;;4.20;;
49103;SDS011;34915;52.926;11.116;2023-06-26T06:58:47;4.97;;;4.57;;
49103;SDS011;34915;52.926;11.116;2023-06-26T07:01:13;5.53;;;4.90;;
49103;SDS011;34915;52.926;11.116;2023-06-26T07:03:39;4.93;;;4.43;;
49103;SDS011;34915;52.926;11.116;2023-06-26T07:06:04;5.07;;;4.57;;
49103;SDS011;34915;52.926;11.116;2023-06-26T07:08:30;5.67;;;4.97;;
49103;SDS011;34915;52.926;11.116;2023-06-26T07:10:58;6.40;;;4.20;;
49103;SDS011;34915;52.926;11.116;2023-06-26T07:13:23;4.57;;;4.17;;
49103;SDS011;34915;52.926;11.116;2023-06-26T07:15:49;6.93;;;5.17;;
49103;SDS011;34915;52.926;11.116;2023-06-26T07:18:14;5.57;;;5.00;;
49103;SDS011;34915;52.926;11.116;2023-06-26T07:20:40;5.80;;;4.90;;
49103;SDS011;34915;52.926;11.116;2023-06-26T07:23:08;8.60;;;5.00;;
49103;SDS011;34915;52.926;11.116;2023-06-26T07:25:35;5.57;;;4.60;;
49103;SDS011;34915;52.926;11.116;2023-06-26T07:28:00;5.30;;;4.80;;
49103;SDS011;34915;52.926;11.116;2023-06-26T07:30:26;5.90;;;4.73;;
49103;SDS011;34915;52.926;11.116;2023-06-26T07:32:52;8.50;;;4.60;;
49103;SDS011;34915;52.926;11.116;2023-06-26T07:35:19;5.63;;;5.03;;
49103;SDS011;34915;52.926;11.116;2023-06-26T07:37:45;5.03;;;4.37;;
49103;SDS011;34915;52.926;11.116;2023-06-26T07:40:11;4.50;;;4.13;;
49103;SDS011;34915;52.926;11.116;2023-06-26T07:42:36;4.77;;;4.40;;
49103;SDS011;34915;52.926;11.116;2023-06-26T07:45:02;6.50;;;5.07;;
49103;SDS011;34915;52.926;11.116;2023-06-26T07:47:35;5.00;;;4.37;;
49103;SDS011;34915;52.926;11.116;2023-06-26T07:50:01;4.90;;;4.50;;
49103;SDS011;34915;52.926;11.116;2023-06-26T07:52:27;5.00;;;4.50;;
49103;SDS011;34915;52.926;11.116;2023-06-26T07:54:53;7.70;;;4.57;;
49103;SDS011;34915;52.926;11.116;2023-06-26T07:57:18;5.83;;;4.70;;
49103;SDS011;34915;52.926;11.116;2023-06-26T07:59:44;5.07;;;4.67;;
49103;SDS011;34915;52.926;11.116;2023-06-26T08:02:09;5.33;;;4.53;;
49103;SDS011;34915;52.926;11.116;2023-06-26T08:04:35;5.97;;;4.70;;
49103;SDS011;34915;52.926;11.116;2023-06-26T08:07:01;5.00;;;4.40;;
49103;SDS011;34915;52.926;11.116;2023-06-26T08:09:28;9.67;;;4.63;;
49103;SDS011;34915;52.926;11.116;2023-06-26T08:11:54;6.10;;;4.77;;
49103;SDS011;34915;52.926;11.116;2023-06-26T08:14:20;6.70;;;4.10;;
49103;SDS011;34915;52.926;11.116;2023-06-26T08:16:46;5.23;;;4.40;;
49103;SDS011;34915;52.926;11.116;2023-06-26T08:19:12;5.10;;;4.67;;
49103;SDS011;34915;52.926;11.116;2023-06-26T08:21:42;5.03;;;4.30;;
49103;SDS011;34915;52.926;11.116;2023-06-26T08:24:09;5.83;;;4.50;;
49103;SDS011;34915;52.926;11.116;2023-06-26T08:26:35;5.63;;;4.90;;
49103;SDS011;34915;52.926;11.116;2023-06-26T08:29:03;6.27;;;4.53;;
49103;SDS011;34915;52.926;11.116;2023-06-26T08:31:35;6.67;;;4.60;;
49103;SDS011;34915;52.926;11.116;2023-06-26T08:34:01;4.93;;;4.53;;
49103;SDS011;34915;52.926;11.116;2023-06-26T08:36:27;5.77;;;4.20;;
49103;SDS011;34915;52.926;11.116;2023-06-26T08:38:53;5.17;;;4.67;;
49103;SDS011;34915;52.926;11.116;2023-06-26T08:41:18;217.63;;;18.50;;
49103;SDS011;34915;52.926;11.116;2023-06-26T08:43:44;5.33;;;3.80;;
49103;SDS011;34915;52.926;11.116;2023-06-26T08:46:10;5.37;;;4.73;;
49103;SDS011;34915;52.926;11.116;2023-06-26T08:48:36;4.57;;;4.17;;
49103;SDS011;34915;52.926;11.116;2023-06-26T08:51:07;5.90;;;5.33;;
49103;SDS011;34915;52.926;11.116;2023-06-26T08:56:12;5.67;;;5.17;;
49103;SDS011;34915;52.926;11.116;2023-06-26T08:58:42;7.33;;;4.87;;
49103;SDS011;34915;52.926;11.116;2023-06-26T09:01:08;6.10;;;5.03;;
49103;SDS011;34915;52.926;11.116;2023-06-26T09:03:37;5.60;;;5.10;;
49103;SDS011;34915;52.926;11.116;2023-06-26T09:06:04;5.47;;;5.03;;
49103;SDS011;34915;52.926;11.116;2023-06-26T09:08:30;5.80;;;5.07;;
49103;SDS011;34915;52.926;11.116;2023-06-26T09:10:55;5.80;;;5.23;;
49103;SDS011;34915;52.926;11.116;2023-06-26T09:13:21;7.70;;;5.40;;
49103;SDS011;34915;52.926;11.116;2023-06-26T09:15:47;6.83;;;5.50;;
49103;SDS011;34915;52.926;11.116;2023-06-26T09:18:12;6.13;;;5.53;;
49103;SDS011;34915;52.926;11.116;2023-06-26T09:20:41;6.73;;;6.13;;
49103;SDS011;34915;52.926;11.116;2023-06-26T09:23:07;6.67;;;6.00;;
49103;SDS011;34915;52.926;11.116;2023-06-26T09:25:37;6.33;;;5.73;;
49103;SDS011;34915;52.926;11.116;2023-06-26T09:28:04;6.00;;;5.47;;
49103;SDS011;34915;52.926;11.116;2023-06-26T09:30:31;6.87;;;5.80;;
49103;SDS011;34915;52.926;11.116;2023-06-26T09:33:02;6.50;;;5.50;;
49103;SDS011;34915;52.926;11.116;2023-06-26T09:35:42;6.03;;;5.43;;
49103;SDS011;34915;52.926;11.116;2023-06-26T09:38:08;5.70;;;5.20;;
49103;SDS011;34915;52.926;11.116;2023-06-26T09:40:34;6.37;;;5.77;;
49103;SDS011;34915;52.926;11.116;2023-06-26T09:43:07;7.70;;;5.47;;
49103;SDS011;34915;52.926;11.116;2023-06-26T09:45:39;6.57;;;5.90;;
49103;SDS011;34915;52.926;11.116;2023-06-26T09:48:05;9.17;;;6.07;;
49103;SDS011;34915;52.926;11.116;2023-06-26T09:50:33;6.43;;;5.60;;
49103;SDS011;34915;52.926;11.116;2023-06-26T09:53:11;6.47;;;5.80;;
49103;SDS011;34915;52.926;11.116;2023-06-26T09:55:43;7.73;;;5.50;;
49103;SDS011;34915;52.926;11.116;2023-06-26T09:58:13;10.83;;;5.70;;
49103;SDS011;34915;52.926;11.116;2023-06-26T10:00:40;7.27;;;5.27;;
49103;SDS011;34915;52.926;11.116;2023-06-26T10:03:07;8.27;;;5.73;;
49103;SDS011;34915;52.926;11.116;2023-06-26T10:05:33;5.87;;;5.30;;
49103;SDS011;34915;52.926;11.116;2023-06-26T10:07:59;7.73;;;5.17;;
49103;SDS011;34915;52.926;11.116;2023-06-26T10:10:25;5.60;;;5.10;;
49103;SDS011;34915;52.926;11.116;2023-06-26T10:12:54;6.37;;;5.77;;
49103;SDS011;34915;52.926;11.116;2023-06-26T10:15:26;5.27;;;4.87;;
49103;SDS011;34915;52.926;11.116;2023-06-26T10:17:55;5.63;;;5.13;;
49103;SDS011;34915;52.926;11.116;2023-06-26T10:20:23;6.13;;;5.40;;
49103;SDS011;34915;52.926;11.116;2023-06-26T10:22:51;6.20;;;5.60;;
49103;SDS011;34915;52.926;11.116;2023-06-26T10:25:18;6.10;;;5.50;;
49103;SDS011;34915;52.926;11.116;2023-06-26T10:27:49;6.10;;;5.50;;
49103;SDS011;34915;52.926;11.116;2023-06-26T10:30:20;8.20;;;5.90;;
49103;SDS011;34915;52.926;11.116;2023-06-26T10:32:49;5.83;;;5.20;;
49103;SDS011;34915;52.926;11.116;2023-06-26T10:35:15;5.13;;;4.63;;
49103;SDS011;34915;52.926;11.116;2023-06-26T10:40:15;5.50;;;5.00;;
49103;SDS011;34915;52.926;11.116;2023-06-26T10:42:47;12.47;;;6.00;;
49103;SDS011;34915;52.926;11.116;2023-06-26T10:45:16;5.50;;;5.00;;
49103;SDS011;34915;52.926;11.116;2023-06-26T10:47:48;6.80;;;5.60;;
49103;SDS011;34915;52.926;11.116;2023-06-26T10:55:57;5.87;;;5.37;;
49103;SDS011;34915;52.926;11.116;2023-06-26T11:01:16;5.87;;;5.27;;
49103;SDS011;34915;52.926;11.116;2023-06-26T11:03:45;6.67;;;5.63;;
49103;SDS011;34915;52.926;11.116;2023-06-26T11:06:24;6.53;;;5.80;;
49103;SDS011;34915;52.926;11.116;2023-06-26T11:09:08;9.17;;;5.77;;
49103;SDS011;34915;52.926;11.116;2023-06-26T11:14:19;7.20;;;5.37;;
49103;SDS011;34915;52.926;11.116;2023-06-26T11:16:49;6.93;;;5.83;;
49103;SDS011;34915;52.926;11.116;2023-06-26T11:19:15;6.53;;;5.83;;
49103;SDS011;34915;52.926;11.116;2023-06-26T11:21:45;6.60;;;6.00;;
49103;SDS011;34915;52.926;11.116;2023-06-26T11:24:11;9.60;;;6.60;;
49103;SDS011;34915;52.926;11.116;2023-06-26T11:26:41;7.17;;;6.47;;
49103;SDS011;34915;52.926;11.116;2023-06-26T11:29:08;8.70;;;6.83;;
49103;SDS011;34915;52.926;11.116;2023-06-26T11:31:37;7.77;;;6.97;;
49103;SDS011;34915;52.926;11.116;2023-06-26T11:34:07;8.43;;;7.17;;
49103;SDS011;34915;52.926;11.116;2023-06-26T11:36:37;11.37;;;6.90;;
49103;SDS011;34915;52.926;11.116;2023-06-26T11:39:04;8.57;;;7.53;;
49103;SDS011;34915;52.926;11.116;2023-06-26T11:41:32;8.57;;;7.17;;
49103;SDS011;34915;52.926;11.116;2023-06-26T11:44:02;11.93;;;8.37;;
49103;SDS011;34915;52.926;11.116;2023-06-26T11:46:28;14.27;;;8.70;;
49103;SDS011;34915;52.926;11.116;2023-06-26T11:48:55;14.33;;;7.93;;
49103;SDS011;34915;52.926;11.116;2023-06-26T11:51:20;14.67;;;7.73;;
49103;SDS011;34915;52.926;11.116;2023-06-26T11:53:46;11.17;;;7.00;;
49103;SDS011;34915;52.926;11.116;2023-06-26T11:56:16;10.43;;;6.90;;
49103;SDS011;34915;52.926;11.116;2023-06-26T12:01:39;10.47;;;6.87;;
49103;SDS011;34915;52.926;11.116;2023-06-26T12:04:06;16.33;;;6.43;;
49103;SDS011;34915;52.926;11.116;2023-06-26T12:06:35;12.40;;;5.53;;
49103;SDS011;34915;52.926;11.116;2023-06-26T12:09:02;10.90;;;6.67;;
49103;SDS011;34915;52.926;11.116;2023-06-26T12:11:30;8.80;;;6.10;;
49103;SDS011;34915;52.926;11.116;2023-06-26T12:13:57;8.50;;;5.83;;
49103;SDS011;34915;52.926;11.116;2023-06-26T12:16:23;8.23;;;5.63;;
49103;SDS011;34915;52.926;11.116;2023-06-26T12:18:49;11.57;;;5.63;;
49103;SDS011;34915;52.926;11.116;2023-06-26T12:23:59;7.07;;;5.37;;
49103;SDS011;34915;52.926;11.116;2023-06-26T12:26:26;5.90;;;5.23;;
49103;SDS011;34915;52.926;11.116;2023-06-26T12:29:05;5.67;;;4.73;;
49103;SDS011;34915;52.926;11.116;2023-06-26T12:31:32;6.40;;;4.57;;
49103;SDS011;34915;52.926;11.116;2023-06-26T12:33:59;9.23;;;5.27;;
49103;SDS011;34915;52.926;11.116;2023-06-26T12:36:25;9.17;;;4.57;;
49103;SDS011;34915;52.926;11.116;2023-06-26T12:38:52;8.13;;;4.90;;
49103;SDS011;34915;52.926;11.116;2023-06-26T12:41:18;5.67;;;4.50;;
49103;SDS011;34915;52.926;11.116;2023-06-26T12:43:45;29.33;;;5.70;;
49103;SDS011;34915;52.926;11.116;2023-06-26T12:46:11;7.30;;;4.83;;
49103;SDS011;34915;52.926;11.116;2023-06-26T12:48:40;8.03;;;5.40;;
49103;SDS011;34915;52.926;11.116;2023-06-26T12:51:11;6.30;;;5.50;;
49103;SDS011;34915;52.926;11.116;2023-06-26T12:53:41;6.70;;;6.00;;
49103;SDS011;34915;52.926;11.116;2023-06-26T12:56:10;6.27;;;4.93;;
49103;SDS011;34915;52.926;11.116;2023-06-26T12:58:36;11.07;;;5.20;;
49103;SDS011;34915;52.926;11.116;2023-06-26T13:01:03;6.57;;;5.00;;
49103;SDS011;34915;52.926;11.116;2023-06-26T13:03:42;8.23;;;5.33;;
49103;SDS011;34915;52.926;11.116;2023-06-26T13:06:08;5.63;;;4.73;;
49103;SDS011;34915;52.926;11.116;2023-06-26T13:08:33;6.67;;;4.80;;
49103;SDS011;34915;52.926;11.116;2023-06-26T13:10:59;8.10;;;4.23;;
49103;SDS011;34915;52.926;11.116;2023-06-26T13:13:25;7.13;;;4.43;;
49103;SDS011;34915;52.926;11.116;2023-06-26T13:15:51;11.70;;;4.93;;
49103;SDS011;34915;52.926;11.116;2023-06-26T13:18:17;4.67;;;3.07;;
49103;SDS011;34915;52.926;11.116;2023-06-26T13:20:42;3.73;;;2.47;;
49103;SDS011;34915;52.926;11.116;2023-06-26T13:23:08;4.43;;;2.53;;
49103;SDS011;34915;52.926;11.116;2023-06-26T13:25:36;4.17;;;2.80;;
49103;SDS011;34915;52.926;11.116;2023-06-26T13:28:02;4.20;;;3.00;;
49103;SDS011;34915;52.926;11.116;2023-06-26T13:30:27;5.87;;;3.37;;
49103;SDS011;34915;52.926;11.116;2023-06-26T13:32:53;5.83;;;2.80;;
49103;SDS011;34915;52.926;11.116;2023-06-26T13:35:19;5.57;;;2.87;;
49103;SDS011;34915;52.926;11.116;2023-06-26T13:37:44;3.50;;;2.40;;
49103;SDS011;34915;52.926;11.116;2023-06-26T13:40:10;4.33;;;2.70;;
49103;SDS011;34915;52.926;11.116;2023-06-26T13:42:36;5.30;;;2.53;;
49103;SDS011;34915;52.926;11.116;2023-06-26T13:45:02;4.37;;;2.10;;
49103;SDS011;34915;52.926;11.116;2023-06-26T13:47:28;6.43;;;2.67;;
49103;SDS011;34915;52.926;11.116;2023-06-26T13:49:54;11.20;;;2.70;;
49103;SDS011;34915;52.926;11.116;2023-06-26T13:52:22;5.60;;;2.73;;
49103;SDS011;34915;52.926;11.116;2023-06-26T13:54:47;1.53;;;1.43;;
49103;SDS011;34915;52.926;11.116;2023-06-26T13:57:13;4.97;;;2.70;;
49103;SDS011;34915;52.926;11.116;2023-06-26T13:59:39;3.63;;;2.53;;
49103;SDS011;34915;52.926;11.116;2023-06-26T14:02:05;4.07;;;2.10;;
49103;SDS011;34915;52.926;11.116;2023-06-26T14:04:31;3.10;;;2.20;;
49103;SDS011;34915;52.926;11.116;2023-06-26T14:06:57;7.70;;;3.03;;
49103;SDS011;34915;52.926;11.116;2023-06-26T14:09:23;6.47;;;2.90;;
49103;SDS011;34915;52.926;11.116;2023-06-26T14:11:49;6.23;;;2.97;;
49103;SDS011;34915;52.926;11.116;2023-06-26T14:14:14;4.40;;;2.80;;
49103;SDS011;34915;52.926;11.116;2023-06-26T14:16:40;6.47;;;2.67;;
49103;SDS011;34915;52.926;11.116;2023-06-26T14:19:06;3.33;;;2.23;;
49103;SDS011;34915;52.926;11.116;2023-06-26T14:21:31;6.90;;;2.60;;
49103;SDS011;34915;52.926;11.116;2023-06-26T14:23:58;4.33;;;2.17;;
49103;SDS011;34915;52.926;11.116;2023-06-26T14:26:26;3.83;;;2.20;;
49103;SDS011;34915;52.926;11.116;2023-06-26T14:28:57;9.57;;;2.50;;
49103;SDS011;34915;52.926;11.116;2023-06-26T14:31:23;5.67;;;2.50;;
49103;SDS011;34915;52.926;11.116;2023-06-26T14:33:49;5.97;;;2.33;;
49103;SDS011;34915;52.926;11.116;2023-06-26T14:36:14;4.83;;;2.00;;
49103;SDS011;34915;52.926;11.116;2023-06-26T14:38:40;5.60;;;1.97;;
49103;SDS011;34915;52.926;11.116;2023-06-26T14:41:05;4.67;;;2.10;;
49103;SDS011;34915;52.926;11.116;2023-06-26T14:43:31;5.17;;;2.27;;
49103;SDS011;34915;52.926;11.116;2023-06-26T14:45:57;4.50;;;2.17;;
49103;SDS011;34915;52.926;11.116;2023-06-26T14:48:22;2.13;;;1.37;;